createdAt,value
2022-10-19T00:02:40.043Z,4.93
2022-10-19T00:12:41.702Z,4.40
2022-10-19T00:22:43.368Z,4.60
2022-10-19T00:32:44.992Z,5.23
2022-10-19T00:42:46.602Z,4.40
2022-10-19T00:52:48.298Z,6.77
2022-10-19T01:02:49.962Z,3.67
2022-10-19T01:13:11.387Z,4.73
2022-10-19T01:23:40.087Z,5.03
2022-10-19T01:33:59.132Z,5.50
2022-10-19T01:44:17.400Z,4.23
2022-10-19T01:54:21.312Z,6.90
2022-10-19T02:04:24.860Z,4.67
2022-10-19T02:14:39.918Z,4.30
2022-10-19T02:24:41.556Z,5.73
2022-10-19T02:34:43.288Z,6.70
2022-10-19T02:44:47.681Z,6.93
2022-10-19T02:54:49.317Z,9.50
2022-10-19T03:04:50.997Z,6.43
2022-10-19T03:14:52.664Z,6.53
2022-10-19T03:24:54.334Z,6.77
2022-10-19T03:34:55.961Z,6.03
2022-10-19T03:44:57.601Z,6.03
2022-10-19T03:54:59.192Z,5.20
2022-10-19T04:05:00.858Z,5.27
2022-10-19T04:15:02.457Z,5.40
2022-10-19T04:25:04.776Z,5.70
2022-10-19T04:35:07.176Z,5.20
2022-10-19T04:45:09.202Z,4.97
2022-10-19T04:55:10.798Z,4.17
2022-10-19T05:05:13.690Z,5.17
2022-10-19T05:15:15.367Z,7.00
2022-10-19T05:25:17.289Z,6.80
2022-10-19T05:35:21.618Z,7.13
2022-10-19T05:45:24.226Z,7.90
2022-10-19T05:55:26.096Z,9.53
2022-10-19T06:05:27.712Z,7.30
2022-10-19T06:15:32.230Z,6.67
2022-10-19T06:25:35.206Z,9.93
2022-10-19T06:35:37.074Z,11.07
2022-10-19T06:45:38.971Z,12.37
2022-10-19T06:55:40.575Z,30.03
2022-10-19T07:05:42.159Z,14.57
2022-10-19T07:15:43.817Z,11.57
2022-10-19T07:25:45.419Z,10.73
2022-10-19T07:35:47.106Z,11.13
2022-10-19T07:45:48.796Z,10.73
2022-10-19T07:55:50.447Z,9.77
2022-10-19T08:05:52.049Z,11.93
2022-10-19T08:15:53.659Z,11.83
2022-10-19T08:25:59.359Z,11.57
2022-10-19T08:36:03.952Z,11.20
2022-10-19T08:46:33.634Z,10.53
2022-10-19T08:56:52.226Z,13.87
2022-10-19T09:07:17.871Z,14.47
2022-10-19T09:17:20.450Z,14.87
2022-10-19T09:27:28.718Z,14.80
2022-10-19T09:37:31.673Z,14.70
2022-10-19T09:47:40.779Z,14.90
2022-10-19T09:57:47.763Z,14.30
2022-10-19T10:07:55.212Z,15.33
2022-10-19T10:17:58.196Z,15.10
2022-10-19T10:28:20.885Z,13.90
2022-10-19T10:38:26.945Z,12.93
2022-10-19T10:48:42.793Z,11.63
2022-10-19T10:58:51.398Z,7.63
2022-10-19T11:09:20.570Z,7.13
2022-10-19T11:19:27.273Z,7.23
2022-10-19T11:29:34.376Z,6.83
2022-10-19T11:40:03.088Z,6.20
2022-10-19T11:50:31.954Z,6.83
2022-10-19T12:00:56.299Z,7.63
2022-10-19T12:11:03.751Z,6.93
2022-10-19T12:21:13.460Z,7.57
2022-10-19T12:31:15.994Z,7.77
2022-10-19T12:41:56.158Z,7.67
2022-10-19T12:52:02.249Z,7.67
2022-10-19T13:02:22.442Z,7.67
2022-10-19T13:12:25.768Z,8.60
2022-10-19T13:22:28.779Z,6.77
2022-10-19T13:32:43.729Z,6.90
2022-10-19T13:42:45.569Z,7.70
2022-10-19T13:53:12.999Z,7.53
2022-10-19T14:03:26.553Z,7.27
2022-10-19T14:13:28.708Z,8.60
2022-10-19T14:23:33.165Z,8.50
2022-10-19T14:33:38.832Z,8.20
2022-10-19T14:43:40.514Z,8.27
2022-10-19T14:53:58.907Z,8.53
2022-10-19T15:04:01.395Z,7.50
2022-10-19T15:14:06.511Z,8.13
2022-10-19T15:24:27.203Z,8.17
2022-10-19T15:34:30.505Z,7.10
2022-10-19T15:44:45.404Z,7.97
2022-10-19T15:54:50.998Z,8.03
2022-10-19T16:04:53.719Z,8.83
2022-10-19T16:14:55.661Z,9.33
2022-10-19T16:24:57.307Z,10.83
2022-10-19T16:34:58.939Z,11.27
2022-10-19T16:45:01.437Z,12.47
2022-10-19T16:55:03.622Z,19.83
2022-10-19T17:05:05.601Z,11.00
2022-10-19T17:25:29.500Z,11.67
2022-10-19T17:35:33.462Z,11.57
2022-10-19T17:45:35.112Z,10.90
2022-10-19T17:55:37.205Z,11.63
2022-10-19T18:05:39.221Z,12.17
2022-10-19T18:15:40.835Z,12.63
2022-10-19T18:25:53.797Z,12.67
2022-10-19T18:35:58.540Z,12.33
2022-10-19T18:46:00.617Z,12.33
2022-10-19T18:56:04.625Z,13.30
2022-10-19T19:06:09.835Z,12.17
2022-10-19T19:16:11.477Z,11.20
2022-10-19T19:26:14.421Z,8.77
2022-10-19T19:36:17.544Z,8.17
2022-10-19T19:46:20.264Z,7.53
2022-10-19T19:56:21.968Z,6.00
2022-10-19T20:06:25.917Z,6.30
2022-10-19T20:16:33.380Z,5.57
2022-10-19T20:26:35.507Z,5.50
2022-10-19T20:36:37.245Z,5.40
2022-10-19T20:46:38.861Z,5.93
2022-10-19T20:56:41.642Z,6.60
2022-10-19T21:06:46.030Z,6.10
2022-10-19T21:16:47.751Z,6.73
2022-10-19T21:26:49.530Z,5.30
2022-10-19T21:36:51.225Z,6.07
2022-10-19T21:46:52.928Z,4.93
2022-10-19T21:56:56.498Z,5.40
2022-10-19T22:06:59.540Z,6.17
2022-10-19T22:17:01.185Z,6.30
2022-10-19T22:27:03.144Z,5.90
2022-10-19T22:37:04.958Z,6.20
2022-10-19T22:47:06.583Z,5.57
2022-10-19T22:57:08.543Z,5.93
2022-10-19T23:17:16.713Z,6.17
2022-10-19T23:27:18.344Z,5.97
2022-10-19T23:37:19.976Z,6.10
2022-10-19T23:47:21.579Z,6.00
2022-10-19T23:57:23.227Z,6.10
